createdAt,value
2019-05-17T00:04:49.742Z,23.29
2019-05-17T00:09:54.054Z,24.00
2019-05-17T00:15:00.993Z,26.37
2019-05-17T00:20:07.410Z,27.75
2019-05-17T00:25:16.612Z,28.00
2019-05-17T00:30:21.200Z,25.25
2019-05-17T00:35:26.764Z,28.00
2019-05-17T00:40:36.702Z,27.00
2019-05-17T00:45:46.809Z,26.00
2019-05-17T00:51:01.083Z,27.75
2019-05-17T00:56:06.970Z,28.00
2019-05-17T01:01:16.480Z,27.00
2019-05-17T01:06:27.375Z,24.87
2019-05-17T01:11:36.696Z,26.75
2019-05-17T01:16:40.254Z,27.50
2019-05-17T01:21:44.584Z,26.50
2019-05-17T01:26:53.365Z,29.87
2019-05-17T01:31:59.482Z,28.50
2019-05-17T01:37:06.327Z,28.00
2019-05-17T01:42:10.140Z,26.75
2019-05-17T01:47:19.012Z,27.13
2019-05-17T01:52:28.322Z,27.75
2019-05-17T01:57:37.022Z,27.00
2019-05-17T02:02:47.118Z,28.00
2019-05-17T02:07:56.832Z,24.83
2019-05-17T02:12:59.895Z,30.00
2019-05-17T02:18:08.254Z,27.25
2019-05-17T02:23:13.109Z,28.00
2019-05-17T02:28:21.525Z,26.37
2019-05-17T02:33:29.099Z,26.57
2019-05-17T02:38:35.261Z,26.00
2019-05-17T02:43:44.408Z,24.37
2019-05-17T02:48:48.594Z,26.00
2019-05-17T02:53:57.234Z,25.12
2019-05-17T02:59:04.996Z,24.00
2019-05-17T03:04:13.085Z,24.00
2019-05-17T03:09:22.884Z,26.22
2019-05-17T03:14:32.548Z,21.37
2019-05-17T03:19:38.384Z,27.25
2019-05-17T03:24:44.008Z,30.00
2019-05-17T03:29:53.501Z,27.00
2019-05-17T03:35:06.060Z,26.87
2019-05-17T03:40:24.957Z,26.00
2019-05-17T03:45:22.850Z,28.00
2019-05-17T03:50:33.488Z,30.62
2019-05-17T03:55:37.809Z,28.00
2019-05-17T04:00:46.375Z,25.88
2019-05-17T04:05:53.298Z,29.33
2019-05-17T04:11:17.666Z,20.12
2019-05-17T04:16:13.899Z,23.44
2019-05-17T04:21:23.132Z,25.88
2019-05-17T04:26:24.358Z,23.00
2019-05-17T04:31:35.163Z,25.64
2019-05-17T04:36:43.250Z,24.33
2019-05-17T04:41:54.706Z,24.25
2019-05-17T04:47:03.382Z,28.00
2019-05-17T04:52:13.621Z,27.00
2019-05-17T04:57:17.004Z,23.00
2019-05-17T05:02:23.414Z,26.00
2019-05-17T05:07:26.586Z,27.75
2019-05-17T05:12:33.503Z,28.75
2019-05-17T05:17:43.176Z,26.62
2019-05-17T05:22:47.480Z,26.67
2019-05-17T05:27:56.087Z,27.87
2019-05-17T05:33:02.199Z,27.00
2019-05-17T05:38:08.314Z,30.37
2019-05-17T05:43:18.435Z,27.11
2019-05-17T05:48:25.265Z,23.00
2019-05-17T05:53:32.621Z,24.00
2019-05-17T05:58:39.844Z,28.00
2019-05-17T06:03:47.575Z,26.00
2019-05-17T06:08:54.522Z,26.14
2019-05-17T06:14:02.430Z,26.00
2019-05-17T06:19:11.689Z,23.00
2019-05-17T06:24:22.519Z,26.62
2019-05-17T06:29:32.915Z,19.62
2019-05-17T06:34:37.844Z,25.50
2019-05-17T06:39:42.448Z,27.75
2019-05-17T06:44:48.871Z,24.17
2019-05-17T06:49:53.542Z,18.00
2019-05-17T06:54:57.914Z,24.00
2019-05-17T07:00:09.353Z,26.00
2019-05-17T07:05:10.559Z,23.67
2019-05-17T07:10:15.060Z,28.00
2019-05-17T07:15:22.017Z,23.38
2019-05-17T07:20:29.809Z,20.00
2019-05-17T07:25:33.692Z,21.00
2019-05-17T07:30:40.013Z,23.75
2019-05-17T07:35:43.652Z,22.00
2019-05-17T07:40:50.219Z,17.00
2019-05-17T07:46:00.403Z,21.62
2019-05-17T07:51:10.388Z,22.87
2019-05-17T07:56:20.113Z,22.00
2019-05-17T08:01:26.551Z,22.75
2019-05-17T08:06:33.864Z,21.29
2019-05-17T08:11:42.814Z,21.87
2019-05-17T08:16:46.615Z,20.75
2019-05-17T08:21:55.427Z,22.00
2019-05-17T08:27:01.655Z,19.12
2019-05-17T08:32:09.624Z,18.12
2019-05-17T08:37:15.289Z,21.37
2019-05-17T08:42:20.453Z,18.00
2019-05-17T08:47:26.391Z,17.87
2019-05-17T08:52:34.410Z,19.14
2019-05-17T08:57:40.806Z,17.25
2019-05-17T09:02:49.972Z,17.50
2019-05-17T09:07:59.970Z,16.00
2019-05-17T09:13:10.297Z,15.29
2019-05-17T09:18:12.679Z,20.00
2019-05-17T09:23:16.590Z,14.00
2019-05-17T09:28:22.187Z,19.00
2019-05-17T09:33:30.346Z,17.37
2019-05-17T09:38:40.178Z,20.75
2019-05-17T09:43:46.404Z,17.75
2019-05-17T09:48:50.583Z,5.20
2019-05-17T09:53:56.649Z,11.25
2019-05-17T09:59:04.047Z,17.75
2019-05-17T10:04:07.147Z,17.67
2019-05-17T10:09:13.616Z,14.75
2019-05-17T10:14:27.497Z,17.00
2019-05-17T10:19:29.023Z,16.25
2019-05-17T10:24:39.585Z,17.62
2019-05-17T10:29:43.073Z,19.75
2019-05-17T10:34:46.319Z,17.00
2019-05-17T10:39:50.436Z,16.00
2019-05-17T10:44:55.262Z,16.75
2019-05-17T10:49:59.934Z,17.25
2019-05-17T10:55:10.391Z,22.57
2019-05-17T11:00:15.062Z,15.67
2019-05-17T11:05:20.089Z,12.75
2019-05-17T11:10:25.967Z,14.86
2019-05-17T11:15:29.155Z,14.00
2019-05-17T11:20:38.126Z,15.27
2019-05-17T11:25:46.307Z,13.14
2019-05-17T11:30:53.641Z,21.00
2019-05-17T11:36:00.007Z,12.71
2019-05-17T11:41:19.985Z,23.38
2019-05-17T11:46:12.027Z,10.86
2019-05-17T11:51:16.743Z,12.57
2019-05-17T11:56:22.402Z,15.63
2019-05-17T12:01:25.716Z,29.33
2019-05-17T12:06:33.394Z,16.62
2019-05-17T12:11:40.819Z,15.25
2019-05-17T12:16:50.907Z,12.75
2019-05-17T12:21:57.147Z,11.57
2019-05-17T12:27:02.899Z,8.29
2019-05-17T12:32:15.938Z,12.86
2019-05-17T12:37:17.871Z,9.00
2019-05-17T12:42:21.802Z,7.00
2019-05-17T12:47:25.788Z,7.00
2019-05-17T12:52:31.998Z,14.57
2019-05-17T12:57:39.958Z,8.43
2019-05-17T13:02:47.641Z,13.00
2019-05-17T13:07:52.875Z,10.00
2019-05-17T13:12:56.576Z,10.00
2019-05-17T13:18:01.039Z,11.29
2019-05-17T13:23:04.764Z,12.50
2019-05-17T13:28:07.620Z,13.67
2019-05-17T13:33:12.152Z,12.00
2019-05-17T13:38:18.155Z,7.33
2019-05-17T13:43:26.664Z,9.86
2019-05-17T13:48:35.199Z,14.13
2019-05-17T13:53:40.496Z,12.00
2019-05-17T13:58:46.487Z,8.29
2019-05-17T14:03:53.423Z,18.00
2019-05-17T14:08:59.564Z,10.14
2019-05-17T14:14:04.375Z,20.00
2019-05-17T14:19:10.580Z,10.29
2019-05-17T14:24:17.692Z,13.00
2019-05-17T14:29:25.618Z,17.00
2019-05-17T14:34:32.046Z,15.63
2019-05-17T14:39:35.155Z,15.00
2019-05-17T14:44:38.814Z,15.75
2019-05-17T14:49:43.583Z,16.00
2019-05-17T14:54:51.669Z,13.50
2019-05-17T14:59:54.627Z,15.00
2019-05-17T15:05:01.193Z,9.00
2019-05-17T15:10:06.993Z,10.00
2019-05-17T15:15:13.487Z,11.12
2019-05-17T15:20:17.168Z,16.00
2019-05-17T15:25:22.603Z,8.57
2019-05-17T15:30:27.541Z,10.17
2019-05-17T15:35:33.508Z,8.00
2019-05-17T15:40:41.256Z,8.00
2019-05-17T15:45:47.482Z,9.00
2019-05-17T15:50:52.098Z,6.00
2019-05-17T15:56:00.892Z,8.00
2019-05-17T16:01:08.093Z,7.33
2019-05-17T16:06:11.029Z,5.40
2019-05-17T16:11:14.619Z,7.00
2019-05-17T16:16:22.361Z,6.00
2019-05-17T16:21:26.721Z,5.00
2019-05-17T16:26:31.311Z,7.00
2019-05-17T16:31:38.185Z,4.50
2019-05-17T16:36:44.225Z,8.17
2019-05-17T16:41:48.118Z,4.00
2019-05-17T16:46:53.518Z,6.29
2019-05-17T16:51:59.121Z,9.71
2019-05-17T16:57:02.782Z,10.00
2019-05-17T17:02:08.043Z,20.12
2019-05-17T17:07:15.796Z,6.86
2019-05-17T17:12:23.583Z,9.90
2019-05-17T17:17:27.249Z,9.50
2019-05-17T17:22:30.859Z,9.00
2019-05-17T17:27:34.531Z,4.00
2019-05-17T17:32:42.171Z,6.50
2019-05-17T17:37:49.793Z,8.00
2019-05-17T17:42:54.480Z,9.67
2019-05-17T17:47:57.350Z,18.50
2019-05-17T17:53:01.177Z,12.33
2019-05-17T17:58:07.310Z,8.00
2019-05-17T18:03:12.279Z,20.17
2019-05-17T18:08:18.967Z,9.43
2019-05-17T18:13:27.282Z,8.00
2019-05-17T18:18:34.852Z,8.00
2019-05-17T18:23:40.119Z,13.57
2019-05-17T18:28:45.967Z,7.29
2019-05-17T18:33:53.787Z,10.00
2019-05-17T18:38:58.500Z,11.29
2019-05-17T18:44:02.915Z,7.00
2019-05-17T18:49:07.124Z,10.00
2019-05-17T18:54:14.066Z,13.29
2019-05-17T18:59:20.137Z,7.43
2019-05-17T19:04:25.680Z,10.29
2019-05-17T19:09:31.904Z,12.71
2019-05-17T19:14:43.038Z,13.75
2019-05-17T19:19:41.286Z,12.50
2019-05-17T19:24:48.973Z,12.63
2019-05-17T19:29:55.074Z,10.29
2019-05-17T19:35:04.428Z,10.71
2019-05-17T19:40:09.716Z,13.00
2019-05-17T19:45:16.750Z,14.63
2019-05-17T19:50:25.286Z,13.75
2019-05-17T19:55:33.318Z,12.43
2019-05-17T20:00:38.541Z,11.63
2019-05-17T20:05:41.743Z,11.00
2019-05-17T20:10:52.007Z,9.43
2019-05-17T20:15:55.736Z,10.60
2019-05-17T20:20:59.235Z,11.25
2019-05-17T20:26:04.654Z,12.29
2019-05-17T20:31:11.796Z,9.71
2019-05-17T20:36:17.326Z,10.71
2019-05-17T20:41:23.969Z,11.43
2019-05-17T20:46:31.196Z,11.63
2019-05-17T20:51:37.104Z,9.57
2019-05-17T20:56:43.867Z,10.43
2019-05-17T21:01:47.883Z,10.00
2019-05-17T21:06:53.643Z,15.63
2019-05-17T21:11:56.991Z,11.00
2019-05-17T21:17:04.470Z,12.86
2019-05-17T21:22:12.730Z,13.62
2019-05-17T21:27:19.191Z,19.12
2019-05-17T21:32:23.308Z,14.00
2019-05-17T21:37:29.977Z,17.71
2019-05-17T21:42:40.034Z,14.27
2019-05-17T21:47:46.689Z,23.38
2019-05-17T21:52:55.136Z,14.38
2019-05-17T21:58:00.868Z,13.00
2019-05-17T22:03:06.563Z,11.86
2019-05-17T22:08:12.326Z,12.29
2019-05-17T22:13:16.577Z,15.40
2019-05-17T22:18:22.394Z,14.00
2019-05-17T22:23:29.077Z,16.50
2019-05-17T22:28:35.064Z,16.25
2019-05-17T22:33:39.915Z,15.25
2019-05-17T22:38:48.314Z,16.25
2019-05-17T22:43:53.258Z,16.50
2019-05-17T22:49:00.681Z,13.62
2019-05-17T22:54:04.717Z,19.50
2019-05-17T22:59:10.570Z,13.00
2019-05-17T23:04:17.278Z,15.00
2019-05-17T23:09:25.643Z,15.00
2019-05-17T23:14:30.884Z,15.50
2019-05-17T23:19:35.920Z,12.50
2019-05-17T23:24:41.742Z,14.13
2019-05-17T23:29:46.795Z,26.75
2019-05-17T23:34:54.282Z,13.50
2019-05-17T23:40:05.023Z,17.25
2019-05-17T23:45:09.088Z,13.75
2019-05-17T23:50:17.542Z,16.50
2019-05-17T23:55:24.112Z,19.25
